Terminal Aerodrome Forecast
Issued by NWS Wichita, KS

Home | Current Version | Previous Version | Text Only | Print | Product List | Glossary On
Versions: 1 2 3 4 5 6 7 8 9 10 11 12 13 14 15 16 17 18 19
011
FTUS43 KICT 270520
TAFICT
TAF
KICT 270520Z 2706/2806 10007KT P6SM BKN300
     FM271000 10003KT P6SM BKN015
     FM271600 16007KT P6SM BKN025
     FM271800 15007KT P6SM BKN040=

USA.gov is the U.S. government's official web portal to all federal, state and local government web resources and services.